createdAt,value
2023-01-10T00:00:29.217Z,0.00
2023-01-10T00:01:29.097Z,0.00
2023-01-10T00:02:29.159Z,0.00
2023-01-10T00:03:29.109Z,0.00
2023-01-10T00:04:29.071Z,0.00
2023-01-10T00:05:29.065Z,0.00
2023-01-10T00:06:29.063Z,0.00
2023-01-10T00:07:29.007Z,0.00
2023-01-10T00:08:29.073Z,0.00
2023-01-10T00:09:28.999Z,0.00
2023-01-10T00:10:28.986Z,0.00
2023-01-10T00:11:29.014Z,0.00
2023-01-10T00:12:28.963Z,0.00
2023-01-10T00:13:28.957Z,0.00
2023-01-10T00:14:29.138Z,0.00
2023-01-10T00:15:28.946Z,0.00
2023-01-10T00:16:28.961Z,0.00
2023-01-10T00:17:28.911Z,0.00
2023-01-10T00:18:28.960Z,0.00
2023-01-10T00:19:28.891Z,0.00
2023-01-10T00:20:28.917Z,0.00
2023-01-10T00:21:28.898Z,0.00
2023-01-10T00:22:28.927Z,0.00
2023-01-10T00:23:28.861Z,0.00
2023-01-10T00:24:28.853Z,0.00
2023-01-10T00:25:28.869Z,0.00
2023-01-10T00:26:28.870Z,0.00
2023-01-10T00:27:28.813Z,0.00
2023-01-10T00:28:28.822Z,0.00
2023-01-10T00:29:28.853Z,0.00
2023-01-10T00:30:29.074Z,0.00
2023-01-10T00:31:28.901Z,0.00
2023-01-10T00:32:28.765Z,0.00
2023-01-10T00:33:28.798Z,0.00
2023-01-10T00:34:28.772Z,0.00
2023-01-10T00:35:28.837Z,0.00
2023-01-10T00:36:28.763Z,0.00
2023-01-10T00:37:28.721Z,0.00
2023-01-10T00:38:28.715Z,0.00
2023-01-10T00:39:28.716Z,0.00
2023-01-10T00:40:28.720Z,0.00
2023-01-10T00:41:28.704Z,0.00
2023-01-10T00:42:28.660Z,0.00
2023-01-10T00:43:28.659Z,0.00
2023-01-10T00:44:28.657Z,0.00
2023-01-10T00:45:28.667Z,0.00
2023-01-10T00:46:28.729Z,0.00
2023-01-10T00:47:28.665Z,0.00
2023-01-10T00:48:28.604Z,0.00
2023-01-10T00:49:28.645Z,0.00
2023-01-10T00:50:28.579Z,0.00
2023-01-10T00:51:28.640Z,0.00
2023-01-10T00:52:28.567Z,0.00
2023-01-10T00:53:30.392Z,0.00
2023-01-10T00:54:28.556Z,0.00
2023-01-10T00:55:28.814Z,0.00
2023-01-10T00:56:28.544Z,0.00
2023-01-10T00:57:28.546Z,0.00
2023-01-10T00:58:28.520Z,0.00
2023-01-10T00:59:28.784Z,0.00
2023-01-10T01:00:28.534Z,0.00
2023-01-10T01:01:28.840Z,0.00
2023-01-10T01:02:28.595Z,0.00
2023-01-10T01:03:28.521Z,0.00
2023-01-10T01:04:28.462Z,0.00
2023-01-10T01:05:28.531Z,0.00
2023-01-10T01:06:28.456Z,0.00
2023-01-10T01:07:28.490Z,0.00
2023-01-10T01:08:28.405Z,0.00
2023-01-10T01:09:28.423Z,0.00
2023-01-10T01:10:28.440Z,0.00
2023-01-10T01:11:28.492Z,0.00
2023-01-10T01:12:29.240Z,0.00
2023-01-10T01:13:28.358Z,0.00
2023-01-10T01:14:28.620Z,0.00
2023-01-10T01:15:28.386Z,0.00
2023-01-10T01:16:28.322Z,0.00
2023-01-10T01:17:28.344Z,0.00
2023-01-10T01:18:28.366Z,0.00
2023-01-10T01:19:28.352Z,0.00
2023-01-10T01:20:28.391Z,0.00
2023-01-10T01:21:28.332Z,0.00
2023-01-10T01:22:28.404Z,0.00
2023-01-10T01:23:28.285Z,0.00
2023-01-10T01:24:29.237Z,0.00
2023-01-10T01:25:28.279Z,0.00
2023-01-10T01:26:28.235Z,0.00
2023-01-10T01:27:28.251Z,0.00
2023-01-10T01:28:28.239Z,0.00
2023-01-10T01:29:42.393Z,0.00
2023-01-10T01:30:28.225Z,0.00
2023-01-10T01:31:29.050Z,0.00
2023-01-10T01:32:28.209Z,0.00
2023-01-10T01:33:28.185Z,0.00
2023-01-10T01:34:28.172Z,0.00
2023-01-10T01:35:28.174Z,0.00
2023-01-10T01:36:28.410Z,0.00
2023-01-10T01:37:28.450Z,0.00
2023-01-10T01:38:28.216Z,0.00
2023-01-10T01:39:29.435Z,0.00
2023-01-10T01:40:28.160Z,0.00
2023-01-10T01:41:28.148Z,0.00
2023-01-10T01:42:28.088Z,0.00
2023-01-10T01:43:28.537Z,0.00
2023-01-10T01:44:28.054Z,0.00
2023-01-10T01:45:28.067Z,0.00
2023-01-10T01:46:28.160Z,0.00
2023-01-10T01:47:28.069Z,0.00
2023-01-10T01:48:28.026Z,0.00
2023-01-10T01:49:28.039Z,0.00
2023-01-10T01:50:28.000Z,0.00
2023-01-10T01:51:27.987Z,0.00
2023-01-10T01:52:27.998Z,0.00
2023-01-10T01:53:27.975Z,0.00
2023-01-10T01:54:27.990Z,0.00
2023-01-10T01:55:27.955Z,0.00
2023-01-10T01:56:27.974Z,0.00
2023-01-10T01:57:27.957Z,0.00
2023-01-10T01:58:27.975Z,0.00
2023-01-10T01:59:27.932Z,0.00
2023-01-10T02:00:27.917Z,0.00
2023-01-10T02:01:28.058Z,0.00
2023-01-10T02:02:27.935Z,0.00
2023-01-10T02:03:27.943Z,0.00
2023-01-10T02:04:27.885Z,0.00
2023-01-10T02:05:27.846Z,0.00
2023-01-10T02:06:27.829Z,0.00
2023-01-10T02:07:27.814Z,0.00
2023-01-10T02:08:27.823Z,0.00
2023-01-10T02:09:28.644Z,0.00
2023-01-10T02:10:27.814Z,0.00
2023-01-10T02:11:27.816Z,0.00
2023-01-10T02:12:28.057Z,0.00
2023-01-10T02:13:27.804Z,0.00
2023-01-10T02:14:27.753Z,0.00
2023-01-10T02:15:27.815Z,0.00
2023-01-10T02:16:27.724Z,0.00
2023-01-10T02:17:27.791Z,0.00
2023-01-10T02:18:27.733Z,0.00
2023-01-10T02:19:27.727Z,0.00
2023-01-10T02:20:27.752Z,0.00
2023-01-10T02:21:27.701Z,0.00
2023-01-10T02:22:27.669Z,0.00
2023-01-10T02:23:27.684Z,0.00
2023-01-10T02:24:27.864Z,0.00
2023-01-10T02:25:27.724Z,0.00
2023-01-10T02:26:27.603Z,0.00
2023-01-10T02:27:27.626Z,0.00
2023-01-10T02:28:27.585Z,0.00
2023-01-10T02:29:27.634Z,0.00
2023-01-10T02:30:27.560Z,0.00
2023-01-10T02:31:27.650Z,0.00
2023-01-10T02:32:43.462Z,0.00
2023-01-10T02:33:27.565Z,0.00
2023-01-10T02:34:27.555Z,0.00
2023-01-10T02:35:27.536Z,0.00
2023-01-10T02:36:27.516Z,0.00
2023-01-10T02:37:27.525Z,0.00
2023-01-10T02:38:27.534Z,0.00
2023-01-10T02:39:27.498Z,0.00
2023-01-10T02:40:27.466Z,0.00
2023-01-10T02:41:27.475Z,0.00
2023-01-10T02:42:27.474Z,0.00
2023-01-10T02:43:27.477Z,0.00
2023-01-10T02:44:27.475Z,0.00
2023-01-10T02:45:27.520Z,0.00
2023-01-10T02:46:27.647Z,0.00
2023-01-10T02:47:27.410Z,0.00
2023-01-10T02:48:27.414Z,0.00
2023-01-10T02:49:27.372Z,0.00
2023-01-10T02:50:27.405Z,0.00
2023-01-10T02:51:27.403Z,0.00
2023-01-10T02:52:27.356Z,0.00
2023-01-10T02:53:27.351Z,0.00
2023-01-10T02:54:27.393Z,0.00
2023-01-10T02:55:27.331Z,0.00
2023-01-10T02:56:27.318Z,0.00
2023-01-10T02:57:27.313Z,0.00
2023-01-10T02:58:27.294Z,0.00
2023-01-10T02:59:27.273Z,0.00
2023-01-10T03:00:27.293Z,0.00
2023-01-10T03:01:27.413Z,0.00
2023-01-10T03:02:27.276Z,0.00
2023-01-10T03:03:27.236Z,0.00
2023-01-10T03:04:27.362Z,0.00
2023-01-10T03:05:27.206Z,0.00
2023-01-10T03:06:27.214Z,0.00
2023-01-10T03:07:27.227Z,0.00
2023-01-10T03:08:27.203Z,0.00
2023-01-10T03:09:27.131Z,1.00
2023-01-10T03:10:27.184Z,0.00
2023-01-10T03:11:27.163Z,0.00
2023-01-10T03:12:27.159Z,0.00
2023-01-10T03:13:27.150Z,0.00
2023-01-10T03:14:27.172Z,0.00
2023-01-10T03:15:27.122Z,0.00
2023-01-10T03:16:27.140Z,0.00
2023-01-10T03:17:27.107Z,0.00
2023-01-10T03:18:27.099Z,0.00
2023-01-10T03:19:27.068Z,0.00
2023-01-10T03:20:27.107Z,0.00
2023-01-10T03:21:27.046Z,0.00
2023-01-10T03:22:27.046Z,0.00
2023-01-10T03:23:27.033Z,0.00
2023-01-10T03:24:27.011Z,0.00
2023-01-10T03:25:27.030Z,0.00
2023-01-10T03:26:27.045Z,0.00
2023-01-10T03:27:27.016Z,0.00
2023-01-10T03:28:26.985Z,0.00
2023-01-10T03:29:26.969Z,0.00
2023-01-10T03:30:26.978Z,0.00
2023-01-10T03:31:26.976Z,0.00
2023-01-10T03:32:26.969Z,0.00
2023-01-10T03:33:26.946Z,0.00
2023-01-10T03:34:26.915Z,0.00
2023-01-10T03:35:26.903Z,0.00
2023-01-10T03:36:26.903Z,0.00
2023-01-10T03:37:26.929Z,0.00
2023-01-10T03:38:26.895Z,0.00
2023-01-10T03:39:26.876Z,0.00
2023-01-10T03:40:26.888Z,0.00
2023-01-10T03:41:26.841Z,0.00
2023-01-10T03:42:26.845Z,0.00
2023-01-10T03:43:26.853Z,0.00
2023-01-10T03:44:26.859Z,0.00
2023-01-10T03:45:26.824Z,0.00
2023-01-10T03:46:26.861Z,0.00
2023-01-10T03:47:26.789Z,0.00
2023-01-10T03:48:26.765Z,0.00
2023-01-10T03:49:26.764Z,0.00
2023-01-10T03:50:26.822Z,0.00
2023-01-10T03:51:26.756Z,0.00
2023-01-10T03:52:26.746Z,0.00
2023-01-10T03:53:26.728Z,0.00
2023-01-10T03:54:26.716Z,0.00
2023-01-10T03:55:26.732Z,0.00
2023-01-10T03:56:26.712Z,0.00
2023-01-10T03:57:26.712Z,0.00
2023-01-10T03:58:26.681Z,0.00
2023-01-10T03:59:26.659Z,0.00
2023-01-10T04:00:26.682Z,0.00
2023-01-10T04:01:26.720Z,0.00
2023-01-10T04:02:26.643Z,0.00
2023-01-10T04:03:26.631Z,0.00
2023-01-10T04:04:26.664Z,0.00
2023-01-10T04:05:26.604Z,0.00
2023-01-10T04:06:26.602Z,0.00
2023-01-10T04:07:26.592Z,0.00
2023-01-10T04:08:26.601Z,0.00
2023-01-10T04:09:26.568Z,0.00
2023-01-10T04:10:26.574Z,0.00
2023-01-10T04:11:26.581Z,0.00
2023-01-10T04:12:26.546Z,0.00
2023-01-10T04:13:26.550Z,0.00
2023-01-10T04:14:26.522Z,0.00
2023-01-10T04:15:26.514Z,0.00
2023-01-10T04:16:26.575Z,0.00
2023-01-10T04:17:26.503Z,0.00
2023-01-10T04:18:26.498Z,0.00
2023-01-10T04:19:26.468Z,0.00
2023-01-10T04:20:26.452Z,0.00
2023-01-10T04:21:26.468Z,0.00
2023-01-10T04:22:26.437Z,0.00
2023-01-10T04:23:26.439Z,0.00
2023-01-10T04:24:26.446Z,0.00
2023-01-10T04:25:26.417Z,0.00
2023-01-10T04:26:26.425Z,0.00
2023-01-10T04:27:26.424Z,0.00
2023-01-10T04:28:26.377Z,0.00
2023-01-10T04:29:26.361Z,0.00
2023-01-10T04:30:26.376Z,0.00
2023-01-10T04:31:26.381Z,0.00
2023-01-10T04:32:26.321Z,0.00
2023-01-10T04:33:26.327Z,0.00
2023-01-10T04:34:26.320Z,0.00
2023-01-10T04:35:26.321Z,0.00
2023-01-10T04:36:26.315Z,0.00
2023-01-10T04:37:26.284Z,0.00
2023-01-10T04:38:26.287Z,0.00
2023-01-10T04:39:26.266Z,0.00
2023-01-10T04:40:26.244Z,0.00
2023-01-10T04:41:26.287Z,0.00
2023-01-10T04:42:26.253Z,0.00
2023-01-10T04:43:26.224Z,0.00
2023-01-10T04:44:26.217Z,0.00
2023-01-10T04:45:26.238Z,0.00
2023-01-10T04:46:26.204Z,0.00
2023-01-10T04:47:26.224Z,0.00
2023-01-10T04:48:26.169Z,0.00
2023-01-10T04:49:26.209Z,0.00
2023-01-10T04:50:26.157Z,0.00
2023-01-10T04:51:26.234Z,0.00
2023-01-10T04:52:26.165Z,0.00
2023-01-10T04:53:26.132Z,0.00
2023-01-10T04:54:26.162Z,0.00
2023-01-10T04:55:26.094Z,0.00
2023-01-10T04:56:26.112Z,0.00
2023-01-10T04:57:26.163Z,0.00
2023-01-10T04:58:26.070Z,0.00
2023-01-10T04:59:26.103Z,0.00
2023-01-10T05:00:26.095Z,0.00
2023-01-10T05:01:26.203Z,0.00
2023-01-10T05:02:26.139Z,0.00
2023-01-10T05:03:26.035Z,0.00
2023-01-10T05:04:26.026Z,0.00
2023-01-10T05:05:26.043Z,0.00
2023-01-10T05:06:25.996Z,0.00
2023-01-10T05:07:25.978Z,0.00
2023-01-10T05:08:25.973Z,0.00
2023-01-10T05:09:25.911Z,1.00
2023-01-10T05:10:25.985Z,0.00
2023-01-10T05:11:25.968Z,0.00
2023-01-10T05:12:25.934Z,0.00
2023-01-10T05:13:25.932Z,0.00
2023-01-10T05:14:25.907Z,0.00
2023-01-10T05:15:25.891Z,0.00
2023-01-10T05:16:25.984Z,0.00
2023-01-10T05:17:25.874Z,0.00
2023-01-10T05:18:25.871Z,0.00
2023-01-10T05:19:25.858Z,0.00
2023-01-10T05:20:25.856Z,0.00
2023-01-10T05:21:25.873Z,0.00
2023-01-10T05:22:25.834Z,0.00
2023-01-10T05:23:25.818Z,0.00
2023-01-10T05:24:25.819Z,0.00
2023-01-10T05:25:25.764Z,1.00
2023-01-10T05:26:25.808Z,0.00
2023-01-10T05:27:25.829Z,0.00
2023-01-10T05:28:25.789Z,0.00
2023-01-10T05:29:25.775Z,0.00
2023-01-10T05:30:25.771Z,0.00
2023-01-10T05:31:25.836Z,0.00
2023-01-10T05:32:25.750Z,0.00
2023-01-10T05:33:25.720Z,0.00
2023-01-10T05:34:25.715Z,0.00
2023-01-10T05:35:25.700Z,0.00
2023-01-10T05:36:25.732Z,0.00
2023-01-10T05:37:25.675Z,0.00
2023-01-10T05:38:25.698Z,0.00
2023-01-10T05:39:25.677Z,0.00
2023-01-10T05:40:25.686Z,0.00
2023-01-10T05:41:25.672Z,0.00
2023-01-10T05:42:25.638Z,0.00
2023-01-10T05:43:25.656Z,0.00
2023-01-10T05:44:25.636Z,0.00
2023-01-10T05:45:25.640Z,0.00
2023-01-10T05:46:25.605Z,0.00
2023-01-10T05:47:25.579Z,0.00
2023-01-10T05:48:25.593Z,0.00
2023-01-10T05:49:25.640Z,0.00
2023-01-10T05:50:25.615Z,0.00
2023-01-10T05:51:25.584Z,0.00
2023-01-10T05:52:25.534Z,0.00
2023-01-10T05:53:25.593Z,0.00
2023-01-10T05:54:25.534Z,0.00
2023-01-10T05:55:25.498Z,0.00
2023-01-10T05:56:25.537Z,0.00
2023-01-10T05:57:25.508Z,0.00
2023-01-10T05:58:25.504Z,0.00
2023-01-10T05:59:28.806Z,0.00
2023-01-10T06:00:25.484Z,0.00
2023-01-10T06:01:25.519Z,0.00
2023-01-10T06:02:25.536Z,1.00
2023-01-10T06:03:25.441Z,0.00
2023-01-10T06:04:25.420Z,0.00
2023-01-10T06:05:25.448Z,0.00
2023-01-10T06:06:25.434Z,0.00
2023-01-10T06:07:25.389Z,0.00
2023-01-10T06:08:25.401Z,0.00
2023-01-10T06:09:25.382Z,0.00
2023-01-10T06:10:27.077Z,0.00
2023-01-10T06:11:25.391Z,0.00
2023-01-10T06:12:25.306Z,1.00
2023-01-10T06:13:25.362Z,0.00
2023-01-10T06:14:25.317Z,0.00
2023-01-10T06:15:25.304Z,0.00
2023-01-10T06:16:25.317Z,0.00
2023-01-10T06:17:25.267Z,1.00
2023-01-10T06:18:25.278Z,0.00
2023-01-10T06:19:25.276Z,0.00
2023-01-10T06:20:25.266Z,0.00
2023-01-10T06:21:25.298Z,0.00
2023-01-10T06:22:25.269Z,0.00
2023-01-10T06:23:25.205Z,1.00
2023-01-10T06:24:25.235Z,0.00
2023-01-10T06:25:25.199Z,0.00
2023-01-10T06:26:25.218Z,0.00
2023-01-10T06:27:25.193Z,0.00
2023-01-10T06:28:25.217Z,0.00
2023-01-10T06:29:25.175Z,0.00
2023-01-10T06:30:25.138Z,1.00
2023-01-10T06:31:25.165Z,0.00
2023-01-10T06:32:25.139Z,0.00
2023-01-10T06:33:25.135Z,0.00
2023-01-10T06:34:25.244Z,0.00
2023-01-10T06:35:25.093Z,1.00
2023-01-10T06:36:25.182Z,0.00
2023-01-10T06:37:25.132Z,0.00
2023-01-10T06:38:25.021Z,1.00
2023-01-10T06:39:25.092Z,0.00
2023-01-10T06:40:25.078Z,0.00
2023-01-10T06:41:25.062Z,0.00
2023-01-10T06:42:25.055Z,0.00
2023-01-10T06:43:25.982Z,0.00
2023-01-10T06:44:25.033Z,0.00
2023-01-10T06:45:25.010Z,0.00
2023-01-10T06:46:25.002Z,1.00
2023-01-10T06:47:24.976Z,1.00
2023-01-10T06:48:24.920Z,1.00
2023-01-10T06:49:24.913Z,1.00
2023-01-10T06:50:24.925Z,1.00
2023-01-10T06:51:24.901Z,1.00
2023-01-10T06:52:24.909Z,1.00
2023-01-10T06:53:24.899Z,2.00
2023-01-10T06:54:24.887Z,2.00
2023-01-10T06:55:24.875Z,2.00
2023-01-10T06:56:24.858Z,1.00
2023-01-10T06:57:24.833Z,1.00
2023-01-10T06:58:24.846Z,1.00
2023-01-10T06:59:24.848Z,2.00
2023-01-10T07:00:24.802Z,4.00
2023-01-10T07:01:24.915Z,3.00
2023-01-10T07:02:24.887Z,5.00
2023-01-10T07:03:24.840Z,3.00
2023-01-10T07:04:24.800Z,3.00
2023-01-10T07:05:24.769Z,2.00
2023-01-10T07:06:24.760Z,6.00
2023-01-10T07:07:24.745Z,10.00
2023-01-10T07:08:24.773Z,9.00
2023-01-10T07:09:24.726Z,9.00
2023-01-10T07:10:24.699Z,15.00
2023-01-10T07:11:24.701Z,12.00
2023-01-10T07:12:24.691Z,12.00
2023-01-10T07:13:24.761Z,20.00
2023-01-10T07:14:24.704Z,18.00
2023-01-10T07:15:24.665Z,21.00
2023-01-10T07:16:24.683Z,27.00
2023-01-10T07:17:24.647Z,31.00
2023-01-10T07:18:24.671Z,37.00
2023-01-10T07:19:24.648Z,33.00
2023-01-10T07:20:24.633Z,33.00
2023-01-10T07:21:24.598Z,37.00
2023-01-10T07:22:24.605Z,35.00
2023-01-10T07:23:24.584Z,42.00
2023-01-10T07:24:24.598Z,49.00
2023-01-10T07:25:24.555Z,53.00
2023-01-10T07:26:24.577Z,61.00
2023-01-10T07:27:24.556Z,70.00
2023-01-10T07:28:24.560Z,73.00
2023-01-10T07:29:24.503Z,80.00
2023-01-10T07:30:29.484Z,94.00
2023-01-10T07:31:24.720Z,104.00
2023-01-10T07:32:24.588Z,114.00
2023-01-10T07:33:25.225Z,121.00
2023-01-10T07:34:25.955Z,129.00
2023-01-10T07:35:24.901Z,137.00
2023-01-10T07:36:25.626Z,150.00
2023-01-10T07:37:24.440Z,153.00
2023-01-10T07:38:25.347Z,161.00
2023-01-10T07:39:26.986Z,168.00
2023-01-10T07:40:24.422Z,165.00
2023-01-10T07:41:24.393Z,179.00
2023-01-10T07:42:24.383Z,191.00
2023-01-10T07:43:24.367Z,188.00
2023-01-10T07:44:24.441Z,195.00
2023-01-10T07:45:24.346Z,184.00
2023-01-10T07:46:24.428Z,194.00
2023-01-10T07:47:24.359Z,184.00
2023-01-10T07:48:24.330Z,192.00
2023-01-10T07:49:24.337Z,209.00
2023-01-10T07:50:24.410Z,215.00
2023-01-10T07:51:24.300Z,218.00
2023-01-10T07:52:24.302Z,196.00
2023-01-10T07:53:24.268Z,220.00
2023-01-10T07:54:24.312Z,221.00
2023-01-10T07:55:24.246Z,211.00
2023-01-10T07:56:24.263Z,220.00
2023-01-10T07:57:24.268Z,215.00
2023-01-10T07:58:24.271Z,214.00
2023-01-10T07:59:24.217Z,220.00
2023-01-10T08:00:24.194Z,221.00
2023-01-10T08:01:24.231Z,212.00
2023-01-10T08:02:24.393Z,220.00
2023-01-10T08:03:24.305Z,242.00
2023-01-10T08:04:24.216Z,245.00
2023-01-10T08:05:24.157Z,271.00
2023-01-10T08:06:24.176Z,259.00
2023-01-10T08:07:24.204Z,316.00
2023-01-10T08:08:24.145Z,335.00
2023-01-10T08:09:24.120Z,339.00
2023-01-10T08:10:24.188Z,335.00
2023-01-10T08:11:24.098Z,350.00
2023-01-10T08:12:24.084Z,380.00
2023-01-10T08:13:24.907Z,373.00
2023-01-10T08:14:24.134Z,360.00
2023-01-10T08:15:24.073Z,376.00
2023-01-10T08:16:24.084Z,411.00
2023-01-10T08:17:24.112Z,465.00
2023-01-10T08:18:24.036Z,376.00
2023-01-10T08:19:24.058Z,421.00
2023-01-10T08:20:24.108Z,464.00
2023-01-10T08:21:23.998Z,368.00
2023-01-10T08:22:24.018Z,404.00
2023-01-10T08:23:24.233Z,528.00
2023-01-10T08:24:24.083Z,257.00
2023-01-10T08:25:23.957Z,352.00
2023-01-10T08:26:23.940Z,377.00
2023-01-10T08:27:24.072Z,377.00
2023-01-10T08:28:23.920Z,430.00
2023-01-10T08:29:24.025Z,464.00
2023-01-10T08:30:23.973Z,554.00
2023-01-10T08:31:23.923Z,476.00
2023-01-10T08:32:24.261Z,472.00
2023-01-10T08:33:23.900Z,474.00
2023-01-10T08:34:23.907Z,493.00
2023-01-10T08:35:23.840Z,483.00
2023-01-10T08:36:23.886Z,483.00
2023-01-10T08:37:23.824Z,482.00
2023-01-10T08:38:23.814Z,475.00
2023-01-10T08:39:24.085Z,478.00
2023-01-10T08:40:23.828Z,476.00
2023-01-10T08:41:23.835Z,488.00
2023-01-10T08:42:23.791Z,429.00
2023-01-10T08:43:23.885Z,451.00
2023-01-10T08:44:23.801Z,515.00
2023-01-10T08:45:23.854Z,556.00
2023-01-10T08:46:23.795Z,567.00
2023-01-10T08:47:23.736Z,517.00
2023-01-10T08:48:23.749Z,477.00
2023-01-10T08:49:23.749Z,434.00
2023-01-10T08:50:23.710Z,405.00
2023-01-10T08:51:23.738Z,395.00
2023-01-10T08:52:23.665Z,365.00
2023-01-10T08:53:23.652Z,375.00
2023-01-10T08:54:23.651Z,401.00
2023-01-10T08:55:23.635Z,438.00
2023-01-10T08:56:23.653Z,468.00
2023-01-10T08:57:23.649Z,514.00
2023-01-10T08:58:23.604Z,524.00
2023-01-10T08:59:23.591Z,581.00
2023-01-10T09:00:23.608Z,563.00
2023-01-10T09:01:23.686Z,532.00
2023-01-10T09:02:23.809Z,309.00
2023-01-10T09:03:23.566Z,432.00
2023-01-10T09:04:23.648Z,723.00
2023-01-10T09:05:28.013Z,1100.00
2023-01-10T09:06:23.545Z,619.00
2023-01-10T09:07:23.512Z,744.00
2023-01-10T09:08:23.561Z,1261.00
2023-01-10T09:09:23.519Z,833.00
2023-01-10T09:10:23.514Z,795.00
2023-01-10T09:11:23.474Z,789.00
2023-01-10T09:12:23.522Z,760.00
2023-01-10T09:13:23.473Z,751.00
2023-01-10T09:14:23.452Z,741.00
2023-01-10T09:15:23.433Z,864.00
2023-01-10T09:16:23.543Z,788.00
2023-01-10T09:17:23.408Z,743.00
2023-01-10T09:18:23.415Z,908.00
2023-01-10T09:19:23.394Z,871.00
2023-01-10T09:20:23.430Z,437.00
2023-01-10T09:21:23.378Z,783.00
2023-01-10T09:22:23.440Z,1110.00
2023-01-10T09:23:23.349Z,1116.00
2023-01-10T09:24:23.341Z,1334.00
2023-01-10T09:25:23.329Z,1346.00
2023-01-10T09:26:23.313Z,836.00
2023-01-10T09:27:23.320Z,627.00
2023-01-10T09:28:23.309Z,1014.00
2023-01-10T09:29:23.436Z,1101.00
2023-01-10T09:30:23.267Z,1501.00
2023-01-10T09:31:23.312Z,364.00
2023-01-10T09:32:23.462Z,1401.00
2023-01-10T09:33:23.304Z,980.00
2023-01-10T09:34:23.239Z,1090.00
2023-01-10T09:35:23.236Z,1181.00
2023-01-10T09:36:23.214Z,1016.00
2023-01-10T09:37:23.220Z,1108.00
2023-01-10T09:38:23.196Z,1110.00
2023-01-10T09:39:23.196Z,1111.00
2023-01-10T09:40:23.226Z,1124.00
2023-01-10T09:41:23.183Z,1136.00
2023-01-10T09:42:23.175Z,1141.00
2023-01-10T09:43:23.170Z,1104.00
2023-01-10T09:44:23.125Z,1117.00
2023-01-10T09:45:23.124Z,1417.00
2023-01-10T09:46:23.184Z,866.00
2023-01-10T09:47:23.463Z,1274.00
2023-01-10T09:48:23.088Z,999.00
2023-01-10T09:49:23.171Z,1382.00
2023-01-10T09:50:23.139Z,897.00
2023-01-10T09:51:23.140Z,1149.00
2023-01-10T09:52:23.086Z,1162.00
2023-01-10T09:53:23.053Z,1182.00
2023-01-10T09:54:23.036Z,1173.00
2023-01-10T09:55:23.096Z,1189.00
2023-01-10T09:56:23.033Z,1208.00
2023-01-10T09:57:22.994Z,1224.00
2023-01-10T09:58:23.004Z,1216.00
2023-01-10T09:59:23.001Z,1197.00
2023-01-10T10:00:22.967Z,1231.00
2023-01-10T10:01:23.001Z,1213.00
2023-01-10T10:02:22.953Z,1212.00
2023-01-10T10:03:22.992Z,1262.00
2023-01-10T10:04:23.081Z,1301.00
2023-01-10T10:05:22.913Z,1152.00
2023-01-10T10:06:22.919Z,1230.00
2023-01-10T10:07:22.928Z,1270.00
2023-01-10T10:08:22.890Z,1188.00
2023-01-10T10:09:22.907Z,1262.00
2023-01-10T10:10:22.861Z,1323.00
2023-01-10T10:11:22.960Z,1205.00
2023-01-10T10:12:23.026Z,1411.00
2023-01-10T10:13:27.577Z,1163.00
2023-01-10T10:14:22.823Z,1496.00
2023-01-10T10:15:22.879Z,1250.00
2023-01-10T10:16:22.858Z,1181.00
2023-01-10T10:17:22.795Z,1447.00
2023-01-10T10:18:22.801Z,1626.00
2023-01-10T10:19:22.829Z,1068.00
2023-01-10T10:20:22.781Z,1076.00
2023-01-10T10:21:22.831Z,910.00
2023-01-10T10:22:22.749Z,1249.00
2023-01-10T10:23:22.751Z,1129.00
2023-01-10T10:24:22.749Z,1077.00
2023-01-10T10:25:22.826Z,1019.00
2023-01-10T10:26:22.704Z,1029.00
2023-01-10T10:27:22.735Z,1053.00
2023-01-10T10:28:22.711Z,1091.00
2023-01-10T10:29:22.680Z,1093.00
2023-01-10T10:30:22.708Z,1021.00
2023-01-10T10:31:22.712Z,972.00
2023-01-10T10:32:22.657Z,938.00
2023-01-10T10:33:22.657Z,966.00
2023-01-10T10:34:22.626Z,940.00
2023-01-10T10:35:22.606Z,900.00
2023-01-10T10:36:22.582Z,850.00
2023-01-10T10:37:22.586Z,833.00
2023-01-10T10:38:22.569Z,781.00
2023-01-10T10:39:22.582Z,774.00
2023-01-10T10:40:22.567Z,781.00
2023-01-10T10:41:22.558Z,798.00
2023-01-10T10:42:22.530Z,752.00
2023-01-10T10:43:22.562Z,692.00
2023-01-10T10:44:22.529Z,642.00
2023-01-10T10:45:24.593Z,644.00
2023-01-10T10:46:22.544Z,616.00
2023-01-10T10:47:22.563Z,603.00
2023-01-10T10:48:22.482Z,532.00
2023-01-10T10:49:22.472Z,492.00
2023-01-10T10:50:22.447Z,565.00
2023-01-10T10:51:22.456Z,612.00
2023-01-10T10:52:22.416Z,602.00
2023-01-10T10:53:22.417Z,565.00
2023-01-10T10:54:22.402Z,573.00
2023-01-10T10:55:22.476Z,614.00
2023-01-10T10:56:22.396Z,670.00
2023-01-10T10:57:22.375Z,665.00
2023-01-10T10:58:22.353Z,608.00
2023-01-10T10:59:22.364Z,604.00
2023-01-10T11:00:22.459Z,580.00
2023-01-10T11:01:24.677Z,573.00
2023-01-10T11:02:22.313Z,583.00
2023-01-10T11:03:22.303Z,550.00
2023-01-10T11:04:22.383Z,534.00
2023-01-10T11:05:22.365Z,539.00
2023-01-10T11:06:22.288Z,707.00
2023-01-10T11:07:22.411Z,811.00
2023-01-10T11:08:22.304Z,859.00
2023-01-10T11:09:22.243Z,870.00
2023-01-10T11:10:22.245Z,798.00
2023-01-10T11:11:22.240Z,765.00
2023-01-10T11:12:22.219Z,780.00
2023-01-10T11:13:22.248Z,753.00
2023-01-10T11:14:22.176Z,831.00
2023-01-10T11:15:22.176Z,813.00
2023-01-10T11:16:22.213Z,785.00
2023-01-10T11:17:22.168Z,743.00
2023-01-10T11:18:22.140Z,662.00
2023-01-10T11:19:22.138Z,686.00
2023-01-10T11:20:22.136Z,631.00
2023-01-10T11:21:24.489Z,606.00
2023-01-10T11:22:22.102Z,632.00
2023-01-10T11:23:22.112Z,795.00
2023-01-10T11:24:22.099Z,812.00
2023-01-10T11:25:22.095Z,814.00
2023-01-10T11:26:22.076Z,864.00
2023-01-10T11:27:22.064Z,867.00
2023-01-10T11:28:22.059Z,792.00
2023-01-10T11:29:22.030Z,776.00
2023-01-10T11:30:22.052Z,857.00
2023-01-10T11:31:22.049Z,832.00
2023-01-10T11:32:22.013Z,750.00
2023-01-10T11:33:21.980Z,690.00
2023-01-10T11:34:22.011Z,859.00
2023-01-10T11:35:22.018Z,567.00
2023-01-10T11:36:21.959Z,751.00
2023-01-10T11:37:21.955Z,2260.00
2023-01-10T11:38:21.939Z,1250.00
2023-01-10T11:39:21.931Z,1242.00
2023-01-10T11:40:21.973Z,1301.00
2023-01-10T11:41:21.930Z,1231.00
2023-01-10T11:42:21.893Z,1218.00
2023-01-10T11:43:21.886Z,1171.00
2023-01-10T11:44:21.881Z,1105.00
2023-01-10T11:45:21.896Z,1105.00
2023-01-10T11:46:22.008Z,1166.00
2023-01-10T11:47:21.853Z,1198.00
2023-01-10T11:48:34.197Z,1181.00
2023-01-10T11:49:21.838Z,1217.00
2023-01-10T11:50:21.816Z,1172.00
2023-01-10T11:51:21.830Z,1173.00
2023-01-10T11:52:21.807Z,1173.00
2023-01-10T11:53:21.784Z,1044.00
2023-01-10T11:54:21.769Z,1358.00
2023-01-10T11:55:21.762Z,1166.00
2023-01-10T11:56:21.773Z,1188.00
2023-01-10T11:57:21.734Z,1181.00
2023-01-10T11:58:21.736Z,1192.00
2023-01-10T11:59:21.717Z,1187.00
2023-01-10T12:00:21.716Z,1040.00
2023-01-10T12:01:21.767Z,1292.00
2023-01-10T12:02:21.799Z,1830.00
2023-01-10T12:03:21.688Z,1324.00
2023-01-10T12:04:21.675Z,1552.00
2023-01-10T12:05:21.799Z,1413.00
2023-01-10T12:06:21.666Z,1493.00
2023-01-10T12:07:21.649Z,1394.00
2023-01-10T12:08:21.627Z,1371.00
2023-01-10T12:09:21.621Z,1343.00
2023-01-10T12:10:21.598Z,1458.00
2023-01-10T12:11:21.608Z,1420.00
2023-01-10T12:12:21.612Z,1507.00
2023-01-10T12:13:21.580Z,1294.00
2023-01-10T12:14:21.557Z,1109.00
2023-01-10T12:15:21.547Z,1646.00
2023-01-10T12:16:21.629Z,1299.00
2023-01-10T12:17:21.547Z,1160.00
2023-01-10T12:18:21.510Z,1163.00
2023-01-10T12:19:21.520Z,1116.00
2023-01-10T12:20:21.542Z,911.00
2023-01-10T12:21:21.502Z,770.00
2023-01-10T12:22:21.469Z,782.00
2023-01-10T12:23:21.497Z,812.00
2023-01-10T12:24:21.471Z,899.00
2023-01-10T12:25:21.462Z,961.00
2023-01-10T12:26:21.436Z,881.00
2023-01-10T12:27:21.472Z,1118.00
2023-01-10T12:28:21.406Z,1285.00
2023-01-10T12:29:21.431Z,1156.00
2023-01-10T12:30:21.400Z,1137.00
2023-01-10T12:31:21.382Z,1228.00
2023-01-10T12:32:21.368Z,1304.00
2023-01-10T12:33:21.388Z,1292.00
2023-01-10T12:34:21.419Z,1351.00
2023-01-10T12:35:21.367Z,1477.00
2023-01-10T12:36:21.339Z,1339.00
2023-01-10T12:37:21.327Z,1271.00
2023-01-10T12:38:21.322Z,1338.00
2023-01-10T12:39:21.299Z,1298.00
2023-01-10T12:40:21.319Z,1194.00
2023-01-10T12:41:21.284Z,1270.00
2023-01-10T12:42:21.276Z,1396.00
2023-01-10T12:43:21.260Z,1258.00
2023-01-10T12:44:21.278Z,1323.00
2023-01-10T12:45:21.264Z,1321.00
2023-01-10T12:46:38.207Z,1361.00
2023-01-10T12:47:21.272Z,1383.00
2023-01-10T12:48:21.201Z,1378.00
2023-01-10T12:49:21.246Z,1489.00
2023-01-10T12:50:21.232Z,1270.00
2023-01-10T12:51:21.192Z,1289.00